Time;durP1;ratioP1;P1;durP2;ratioP2;P2;SDS_P1;SDS_P2;PMS_P1;PMS_P2;Temp;Humidity;BMP_temperature;BMP_pressure;BME280_temperature;BME280_humidity;BME280_pressure;Samples;Min_cycle;Max_cycle;Signal;HPM_P1;HPM_P2
2023/05/23 04:02:18;;;;;;;22.63;14.47;;;15.70;99.90;;;;;;5081366;23;20596;-72
2023/05/23 04:04:45;;;;;;;23.70;14.50;;;15.70;99.90;;;;;;4952277;28;20464;-69
2023/05/23 04:07:13;;;;;;;15.37;11.47;;;15.70;99.90;;;;;;4943109;29;20685;-72
2023/05/23 04:09:40;;;;;;;17.13;12.87;;;15.70;99.90;;;;;;4937320;29;20468;-71
2023/05/23 04:12:08;;;;;;;21.93;11.73;;;15.70;99.90;;;;;;4948756;28;20512;-73
2023/05/23 04:14:35;;;;;;;24.67;13.03;;;15.70;99.90;;;;;;4943261;29;20818;-73
2023/05/23 04:17:01;;;;;;;16.90;11.30;;;15.70;99.90;;;;;;4948914;29;20469;-73
2023/05/23 04:19:29;;;;;;;23.47;15.30;;;15.70;99.90;;;;;;4946389;29;20813;-72
2023/05/23 04:21:56;;;;;;;17.73;10.30;;;15.70;99.90;;;;;;4941754;28;20485;-72
2023/05/23 04:24:23;;;;;;;22.03;11.60;;;15.70;99.90;;;;;;4936400;29;20970;-72
2023/05/23 04:26:50;;;;;;;17.97;13.50;;;15.80;99.90;;;;;;4939761;29;20536;-72
2023/05/23 04:29:16;;;;;;;18.50;11.70;;;15.70;99.90;;;;;;4946830;28;20476;-72
2023/05/23 04:31:44;;;;;;;16.70;11.17;;;15.80;99.90;;;;;;4943611;29;20882;-72
2023/05/23 04:34:11;;;;;;;16.77;12.30;;;15.70;99.90;;;;;;4946746;29;20509;-72
2023/05/23 04:36:39;;;;;;;10.63;8.03;;;15.70;99.90;;;;;;4949021;29;20852;-72
2023/05/23 04:39:06;;;;;;;16.97;11.17;;;15.70;99.90;;;;;;4944190;29;20491;-72
2023/05/23 04:41:33;;;;;;;12.23;9.73;;;15.70;99.90;;;;;;4945412;28;20493;-71
2023/05/23 04:43:59;;;;;;;10.70;8.57;;;15.70;99.90;;;;;;4947072;29;20581;-72
2023/05/23 04:46:26;;;;;;;14.37;10.43;;;15.70;99.90;;;;;;4946314;29;20972;-72
2023/05/23 04:48:53;;;;;;;19.67;12.40;;;15.70;99.90;;;;;;4947714;28;20590;-71
2023/05/23 04:51:20;;;;;;;17.07;9.70;;;15.70;99.90;;;;;;4940311;29;20488;-71
2023/05/23 04:53:50;;;;;;;14.47;9.33;;;15.60;99.90;;;;;;4941454;28;20525;-72
2023/05/23 04:56:19;;;;;;;11.87;8.90;;;15.50;99.90;;;;;;4943236;29;20478;-71
2023/05/23 04:58:46;;;;;;;11.90;8.57;;;15.50;99.90;;;;;;4940436;29;20535;-71
2023/05/23 05:01:13;;;;;;;13.33;8.67;;;15.50;99.90;;;;;;4948334;29;20504;-71
2023/05/23 05:03:40;;;;;;;13.90;9.80;;;15.40;99.90;;;;;;4942166;29;20469;-71
2023/05/23 05:06:07;;;;;;;13.80;9.73;;;15.40;99.90;;;;;;4949766;29;20484;-71
2023/05/23 05:08:35;;;;;;;15.10;7.73;;;15.30;99.90;;;;;;4941749;29;20473;-71
2023/05/23 05:11:03;;;;;;;15.70;8.63;;;15.30;99.90;;;;;;4940119;29;20500;-71
2023/05/23 05:13:29;;;;;;;10.77;7.37;;;15.20;99.90;;;;;;4945711;28;20492;-71
2023/05/23 05:15:57;;;;;;;18.70;9.30;;;15.20;99.90;;;;;;4941100;29;20475;-71
2023/05/23 05:18:26;;;;;;;9.03;7.20;;;15.20;99.90;;;;;;4946255;28;20469;-71
2023/05/23 05:20:52;;;;;;;10.57;8.33;;;15.20;99.90;;;;;;4940608;29;20500;-71
2023/05/23 05:23:20;;;;;;;11.23;6.03;;;15.20;99.90;;;;;;4948211;29;20468;-72
2023/05/23 05:25:47;;;;;;;9.43;6.67;;;15.20;99.90;;;;;;4950547;28;21019;-71
2023/05/23 05:28:15;;;;;;;8.63;5.80;;;15.30;99.90;;;;;;4946679;28;20540;-66
2023/05/23 05:30:42;;;;;;;10.53;7.40;;;15.30;99.90;;;;;;4936416;29;20528;-70
2023/05/23 05:33:09;;;;;;;10.57;8.90;;;15.20;99.90;;;;;;4950005;29;20584;-70
2023/05/23 05:35:37;;;;;;;12.50;7.00;;;15.20;99.90;;;;;;4942513;29;20934;-72
2023/05/23 05:38:04;;;;;;;9.57;6.53;;;15.10;99.90;;;;;;4948559;29;20559;-70
2023/05/23 05:40:31;;;;;;;11.57;7.77;;;15.10;99.90;;;;;;4943847;28;20498;-71
2023/05/23 05:42:58;;;;;;;12.80;8.80;;;15.20;99.90;;;;;;4950789;29;20527;-71
2023/05/23 05:45:26;;;;;;;11.63;6.03;;;15.20;99.90;;;;;;4942622;29;20499;-72
2023/05/23 05:47:53;;;;;;;10.40;7.73;;;15.20;99.90;;;;;;4953219;29;20469;-72
2023/05/23 05:50:19;;;;;;;13.73;9.07;;;15.30;99.90;;;;;;4952529;29;20506;-71
2023/05/23 05:52:46;;;;;;;10.37;6.83;;;15.30;99.90;;;;;;4951202;29;20468;-71
2023/05/23 05:55:13;;;;;;;7.17;6.40;;;15.30;99.90;;;;;;4946484;29;20472;-71
2023/05/23 05:57:41;;;;;;;9.30;7.50;;;15.30;99.90;;;;;;4946149;29;20477;-71
2023/05/23 06:00:12;;;;;;;9.40;7.50;;;15.30;99.90;;;;;;4964380;23;20507;-70
2023/05/23 06:02:41;;;;;;;10.97;8.40;;;15.30;99.90;;;;;;4949713;28;20560;-70
2023/05/23 06:05:11;;;;;;;7.77;7.03;;;15.20;99.90;;;;;;4952569;28;20464;-69
2023/05/23 06:07:37;;;;;;;10.60;7.30;;;15.20;99.90;;;;;;4954375;29;20554;-70
2023/05/23 06:10:05;;;;;;;12.30;7.63;;;15.20;99.90;;;;;;4951900;28;20499;-70
2023/05/23 06:12:32;;;;;;;10.40;7.67;;;15.20;99.90;;;;;;4948962;28;20473;-70
2023/05/23 06:14:59;;;;;;;16.83;9.63;;;15.30;99.90;;;;;;4951179;28;20492;-69
2023/05/23 06:17:25;;;;;;;9.50;8.20;;;15.30;99.90;;;;;;4953226;29;21058;-70
2023/05/23 06:19:54;;;;;;;10.97;8.80;;;15.30;99.90;;;;;;4953983;28;20515;-70
2023/05/23 06:22:20;;;;;;;8.73;6.73;;;15.30;99.90;;;;;;4951583;28;20483;-70
2023/05/23 06:24:47;;;;;;;13.93;8.50;;;15.30;99.90;;;;;;4950069;28;20473;-71
2023/05/23 06:27:14;;;;;;;9.10;6.80;;;15.30;99.90;;;;;;4952877;28;20473;-70
2023/05/23 06:29:40;;;;;;;9.90;7.93;;;15.40;99.90;;;;;;4953792;28;20523;-70
2023/05/23 06:32:07;;;;;;;6.63;6.13;;;15.40;99.90;;;;;;4949459;28;20488;-70
2023/05/23 06:34:34;;;;;;;11.13;7.27;;;15.50;99.90;;;;;;4951753;28;20503;-70
2023/05/23 06:37:02;;;;;;;11.60;8.50;;;15.40;99.90;;;;;;4951025;28;20468;-70
2023/05/23 06:39:29;;;;;;;12.60;7.40;;;15.40;99.90;;;;;;4952037;28;20495;-71
2023/05/23 06:41:55;;;;;;;10.30;8.47;;;15.40;99.90;;;;;;4943400;28;20985;-71
2023/05/23 06:44:22;;;;;;;17.67;7.13;;;15.40;99.90;;;;;;4951394;28;20958;-70
2023/05/23 06:46:49;;;;;;;9.50;6.93;;;15.40;99.90;;;;;;4952465;28;21135;-70
2023/05/23 06:49:16;;;;;;;13.40;7.37;;;15.40;99.90;;;;;;4950636;28;20495;-70
2023/05/23 06:51:42;;;;;;;32.47;8.30;;;15.50;99.90;;;;;;4951035;28;20473;-70
2023/05/23 06:54:11;;;;;;;11.87;7.60;;;15.50;99.90;;;;;;4951588;28;20484;-71
2023/05/23 06:56:38;;;;;;;8.43;7.63;;;15.50;99.90;;;;;;4950577;28;20481;-71
2023/05/23 06:59:04;;;;;;;9.80;7.80;;;15.60;99.90;;;;;;4955047;28;20464;-71
2023/05/23 07:01:31;;;;;;;9.80;7.20;;;15.50;99.90;;;;;;4944322;28;20469;-70
2023/05/23 07:03:58;;;;;;;8.43;7.00;;;15.60;99.90;;;;;;4952253;28;20468;-70
2023/05/23 07:06:26;;;;;;;10.60;6.90;;;15.60;99.90;;;;;;4952263;28;20477;-70
2023/05/23 07:08:53;;;;;;;12.23;6.67;;;15.60;99.90;;;;;;4951482;28;20587;-70
2023/05/23 07:11:21;;;;;;;11.80;6.63;;;15.70;99.90;;;;;;4948159;28;20497;-71
2023/05/23 07:13:48;;;;;;;10.60;8.87;;;15.60;99.90;;;;;;4951767;28;20866;-70
2023/05/23 07:16:15;;;;;;;21.03;9.03;;;15.70;99.90;;;;;;4947788;28;20558;-71
2023/05/23 07:18:42;;;;;;;15.07;9.63;;;15.70;99.90;;;;;;4952953;28;20480;-71
2023/05/23 07:21:08;;;;;;;11.03;7.30;;;15.60;99.90;;;;;;4950585;28;20596;-70
2023/05/23 07:23:35;;;;;;;11.93;7.50;;;15.60;99.90;;;;;;4952485;28;20475;-71
2023/05/23 07:26:02;;;;;;;12.60;9.00;;;15.60;99.90;;;;;;4945979;28;20476;-71
2023/05/23 07:28:30;;;;;;;12.93;8.27;;;15.60;99.90;;;;;;4956998;28;20564;-71
2023/05/23 07:30:57;;;;;;;14.63;7.93;;;15.60;99.90;;;;;;4952711;29;20484;-71
2023/05/23 07:33:24;;;;;;;15.23;8.93;;;15.60;99.90;;;;;;4955929;28;22392;-69
2023/05/23 07:35:50;;;;;;;15.30;8.13;;;15.50;99.90;;;;;;4945406;28;20479;-70
2023/05/23 07:38:17;;;;;;;16.53;9.10;;;15.50;99.90;;;;;;4950256;29;20527;-71
2023/05/23 07:40:44;;;;;;;12.47;9.07;;;15.50;99.90;;;;;;4949741;28;20492;-70
2023/05/23 07:43:11;;;;;;;15.13;8.17;;;15.50;99.90;;;;;;4943594;28;20473;-70
2023/05/23 07:45:39;;;;;;;19.80;10.00;;;15.50;99.90;;;;;;4952658;28;20461;-70
2023/05/23 07:48:05;;;;;;;11.20;8.17;;;15.40;99.90;;;;;;4950861;28;20484;-70
2023/05/23 07:50:32;;;;;;;15.13;7.60;;;15.50;99.90;;;;;;4949710;28;20515;-70
2023/05/23 07:52:59;;;;;;;12.17;9.77;;;15.40;99.90;;;;;;4951527;28;20480;-71
2023/05/23 07:55:25;;;;;;;10.70;8.80;;;15.40;99.90;;;;;;4949974;28;20488;-70
2023/05/23 07:57:53;;;;;;;14.30;8.50;;;15.40;99.90;;;;;;4944599;28;20533;-70
2023/05/23 08:00:20;;;;;;;13.10;8.10;;;15.40;99.90;;;;;;4946967;28;20532;-70
2023/05/23 08:02:49;;;;;;;11.83;7.90;;;15.40;99.90;;;;;;4950049;28;20478;-70
2023/05/23 08:05:18;;;;;;;8.10;6.33;;;15.50;99.90;;;;;;4950609;28;20461;-70
2023/05/23 08:07:44;;;;;;;12.30;7.63;;;15.60;99.90;;;;;;4951720;28;20476;-70
2023/05/23 08:10:11;;;;;;;19.37;9.23;;;15.60;99.90;;;;;;4951783;28;20501;-70
2023/05/23 08:12:38;;;;;;;10.27;7.23;;;15.60;99.90;;;;;;4946006;28;22180;-70
2023/05/23 08:15:05;;;;;;;8.43;7.23;;;15.60;99.90;;;;;;4951231;28;20495;-71
2023/05/23 08:17:32;;;;;;;7.17;6.47;;;15.50;99.90;;;;;;4948466;28;20476;-70
2023/05/23 08:20:01;;;;;;;6.10;4.97;;;15.50;99.90;;;;;;4948919;28;20492;-70
2023/05/23 08:22:27;;;;;;;7.53;5.70;;;15.50;99.90;;;;;;4951546;28;20551;-71
2023/05/23 08:24:54;;;;;;;5.20;4.90;;;15.50;99.90;;;;;;4949908;28;20472;-71
2023/05/23 08:27:21;;;;;;;9.30;8.00;;;15.40;99.90;;;;;;4951942;28;20572;-71
2023/05/23 08:29:48;;;;;;;8.77;7.07;;;15.30;99.90;;;;;;4951699;28;20511;-70
2023/05/23 08:32:14;;;;;;;7.03;6.43;;;15.20;99.90;;;;;;4946032;28;20469;-70
2023/05/23 08:34:41;;;;;;;9.20;8.17;;;15.10;99.90;;;;;;4950432;28;22084;-71
2023/05/23 08:37:09;;;;;;;9.97;8.43;;;15.00;99.90;;;;;;4951387;28;20480;-71
2023/05/23 08:39:36;;;;;;;9.47;8.67;;;14.90;99.90;;;;;;4949146;28;21009;-71
2023/05/23 08:42:03;;;;;;;4.80;4.47;;;14.90;99.90;;;;;;4950972;28;20477;-69
2023/05/23 08:44:30;;;;;;;9.33;5.87;;;14.80;99.90;;;;;;4948472;28;20472;-68
2023/05/23 08:47:04;;;;;;;7.07;6.03;;;14.80;99.90;;;;;;4946963;28;20472;-69
2023/05/23 08:49:31;;;;;;;5.50;5.23;;;14.80;99.90;;;;;;4950263;28;20575;-69
2023/05/23 08:52:02;;;;;;;7.97;7.30;;;14.70;99.90;;;;;;4953084;28;20473;-70
2023/05/23 08:54:31;;;;;;;7.27;6.20;;;14.70;99.90;;;;;;4948829;28;20489;-69
2023/05/23 08:56:58;;;;;;;6.87;4.97;;;14.80;99.90;;;;;;4949575;28;20469;-68
2023/05/23 08:59:26;;;;;;;6.43;5.80;;;14.80;99.90;;;;;;4949334;28;20898;-69
2023/05/23 09:01:56;;;;;;;7.50;6.70;;;14.90;99.90;;;;;;4952122;28;20523;-69
2023/05/23 09:04:23;;;;;;;6.97;6.33;;;15.10;99.90;;;;;;4957311;28;20628;-69
2023/05/23 09:06:49;;;;;;;9.33;6.80;;;15.30;99.90;;;;;;4945238;28;20473;-69
2023/05/23 09:09:16;;;;;;;7.70;6.97;;;15.40;99.90;;;;;;4943444;28;20985;-69
2023/05/23 09:11:45;;;;;;;6.03;5.50;;;15.40;99.90;;;;;;4949138;28;20476;-69
2023/05/23 09:14:13;;;;;;;7.33;6.70;;;15.40;99.90;;;;;;4953410;28;20520;-70
2023/05/23 09:16:40;;;;;;;6.43;5.83;;;15.40;99.90;;;;;;4951176;28;20480;-69
2023/05/23 09:19:13;;;;;;;6.77;6.20;;;15.30;99.90;;;;;;4953655;28;20472;-69
2023/05/23 09:21:43;;;;;;;5.20;4.70;;;15.20;99.90;;;;;;4953352;28;20549;-70
2023/05/23 09:24:10;;;;;;;4.80;4.40;;;15.20;99.90;;;;;;4952858;28;20635;-69
2023/05/23 09:26:37;;;;;;;4.57;4.37;;;15.20;99.90;;;;;;4950256;28;20468;-70
2023/05/23 09:29:07;;;;;;;6.03;4.60;;;15.10;99.90;;;;;;4954212;29;20468;-69
2023/05/23 09:31:34;;;;;;;8.67;5.47;;;15.10;99.90;;;;;;4951025;28;20595;-69
2023/05/23 09:34:00;;;;;;;5.33;4.83;;;15.10;99.90;;;;;;4954882;28;20475;-69
2023/05/23 09:36:29;;;;;;;3.23;3.00;;;15.10;99.90;;;;;;4953386;28;20805;-69
2023/05/23 09:38:56;;;;;;;3.20;3.10;;;15.10;99.90;;;;;;4959205;28;20851;-69
2023/05/23 09:41:23;;;;;;;4.33;4.07;;;15.00;99.90;;;;;;4952862;28;20572;-69
2023/05/23 09:43:51;;;;;;;3.33;3.03;;;15.00;99.90;;;;;;4953689;28;20850;-69
2023/05/23 09:46:20;;;;;;;3.83;2.80;;;15.00;99.90;;;;;;4953177;28;20857;-70
2023/05/23 09:48:47;;;;;;;4.20;3.90;;;15.00;99.90;;;;;;4953096;28;20484;-69
2023/05/23 09:51:15;;;;;;;2.87;2.77;;;15.00;99.90;;;;;;4947173;28;20492;-70
2023/05/23 09:53:41;;;;;;;4.60;4.33;;;15.10;99.90;;;;;;4954073;28;20511;-70
2023/05/23 09:56:11;;;;;;;4.23;3.90;;;15.20;99.90;;;;;;4954756;28;20531;-69
2023/05/23 09:58:39;;;;;;;3.93;2.57;;;15.20;99.90;;;;;;4953342;28;20556;-70
2023/05/23 10:01:09;;;;;;;4.27;3.87;;;15.20;99.90;;;;;;4952157;28;20855;-70
2023/05/23 10:03:45;;;;;;;3.83;3.53;;;15.10;99.90;;;;;;4959979;28;20475;-70
2023/05/23 10:06:17;;;;;;;4.20;3.90;;;15.00;99.90;;;;;;4952372;28;20543;-70
2023/05/23 10:08:50;;;;;;;3.90;3.50;;;14.90;99.90;;;;;;4951804;28;20839;-69
2023/05/23 10:11:50;;;;;;;3.77;3.57;;;14.80;99.90;;;;;;4952147;28;21060;-70
2023/05/23 10:14:18;;;;;;;4.10;3.80;;;14.70;99.90;;;;;;4952071;28;21218;-69
2023/05/23 10:17:05;;;;;;;5.90;4.43;;;14.50;99.90;;;;;;4954454;28;20512;-70
2023/05/23 10:19:43;;;;;;;4.70;4.00;;;14.40;99.90;;;;;;4948960;28;20488;-70
2023/05/23 10:22:12;;;;;;;3.53;3.33;;;14.30;99.90;;;;;;4952687;28;20599;-70
2023/05/23 10:24:39;;;;;;;4.43;4.07;;;14.30;99.90;;;;;;4953002;28;20555;-69
2023/05/23 10:27:07;;;;;;;5.57;3.97;;;14.20;99.90;;;;;;4947208;28;20469;-70
2023/05/23 10:29:35;;;;;;;5.33;4.70;;;14.10;99.90;;;;;;4946791;28;20504;-70
2023/05/23 10:32:03;;;;;;;3.30;3.10;;;14.00;99.90;;;;;;4949558;28;20464;-71
2023/05/23 10:34:37;;;;;;;6.13;5.53;;;13.90;99.90;;;;;;4948116;29;20484;-71
2023/05/23 10:37:05;;;;;;;4.20;3.67;;;13.80;99.90;;;;;;4953596;28;20476;-71
2023/05/23 10:39:43;;;;;;;6.20;5.63;;;13.80;99.90;;;;;;4950068;28;21077;-71
2023/05/23 10:42:15;;;;;;;5.97;5.57;;;13.60;99.90;;;;;;4953153;29;20817;-71
2023/05/23 10:44:42;;;;;;;2.70;2.50;;;13.60;99.90;;;;;;4945937;28;20532;-71
2023/05/23 10:47:09;;;;;;;4.20;3.90;;;13.50;99.90;;;;;;4949146;28;20473;-71
2023/05/23 10:49:41;;;;;;;4.83;2.73;;;13.40;99.90;;;;;;4950636;28;20491;-71
2023/05/23 10:52:10;;;;;;;4.10;3.77;;;13.40;99.90;;;;;;4952207;28;20477;-71
2023/05/23 10:54:41;;;;;;;1.97;1.77;;;13.40;99.90;;;;;;4947377;28;20494;-70
2023/05/23 10:57:11;;;;;;;2.87;2.67;;;13.30;99.90;;;;;;4950679;28;20477;-71
2023/05/23 10:59:38;;;;;;;3.77;3.47;;;13.30;99.90;;;;;;4947281;28;20501;-72
2023/05/23 11:02:12;;;;;;;2.43;2.40;;;13.40;99.90;;;;;;4950937;28;20457;-73
2023/05/23 11:04:40;;;;;;;4.90;2.53;;;13.30;99.90;;;;;;4947859;28;20472;-72
2023/05/23 11:07:30;;;;;;;3.00;2.90;;;13.30;99.90;;;;;;4951336;29;20477;-72
2023/05/23 11:10:03;;;;;;;5.18;4.78;;;13.30;99.90;;;;;;4948375;28;20355;-71
2023/05/23 11:12:38;;;;;;;4.50;4.03;;;13.20;99.90;;;;;;4954627;28;20336;-72
2023/05/23 11:15:20;;;;;;;5.43;2.73;;;13.20;99.90;;;;;;4948971;28;20515;-69
2023/05/23 11:17:51;;;;;;;2.27;2.17;;;13.20;99.90;;;;;;4949401;28;20507;-73
2023/05/23 11:20:22;;;;;;;2.30;2.20;;;13.20;99.90;;;;;;4950905;28;20488;-71
2023/05/23 11:22:54;;;;;;;4.20;3.90;;;13.10;99.90;;;;;;4955539;28;20474;-71
2023/05/23 11:25:21;;;;;;;4.43;4.13;;;13.10;99.90;;;;;;4949923;28;20527;-71
2023/05/23 11:27:50;;;;;;;6.70;3.60;;;13.00;99.90;;;;;;4952981;28;20581;-71
2023/05/23 11:30:17;;;;;;;6.15;5.18;;;13.00;99.90;;;;;;4946064;28;20493;-71
2023/05/23 11:32:52;;;;;;;4.43;4.03;;;13.10;99.90;;;;;;4959891;28;20208;-70
2023/05/23 11:35:21;;;;;;;5.27;4.73;;;13.10;99.90;;;;;;4944924;28;20554;-71
2023/05/23 11:37:48;;;;;;;4.97;3.60;;;13.10;99.90;;;;;;4948293;28;20473;-71
2023/05/23 11:40:32;;;;;;;8.10;4.03;;;13.10;99.90;;;;;;4956586;28;20308;-71
2023/05/23 11:43:00;;;;;;;3.83;3.63;;;13.20;99.90;;;;;;4951794;28;20496;-71
2023/05/23 11:45:29;;;;;;;5.00;3.03;;;13.20;99.90;;;;;;4945458;28;20472;-71
2023/05/23 11:47:55;;;;;;;3.80;3.43;;;13.20;99.90;;;;;;4955326;28;20468;-71
2023/05/23 11:50:24;;;;;;;13.63;4.23;;;13.20;99.90;;;;;;4950630;28;20516;-71
2023/05/23 11:52:51;;;;;;;3.67;2.73;;;13.10;99.90;;;;;;4947637;28;20476;-73
2023/05/23 11:55:18;;;;;;;5.20;4.83;;;13.20;99.90;;;;;;4952303;28;20507;-71
2023/05/23 11:57:46;;;;;;;4.33;4.10;;;13.20;99.90;;;;;;4949432;28;22157;-70
2023/05/23 12:00:14;;;;;;;7.63;5.70;;;13.20;99.90;;;;;;4951062;28;20862;-70
2023/05/23 12:02:41;;;;;;;2.43;2.33;;;13.30;99.90;;;;;;4951423;28;20567;-70
2023/05/23 12:05:09;;;;;;;4.33;4.10;;;13.30;99.90;;;;;;4949680;28;20465;-71
2023/05/23 12:07:40;;;;;;;6.50;4.70;;;13.40;99.90;;;;;;4951208;28;20469;-71
2023/05/23 12:10:08;;;;;;;4.20;3.90;;;13.40;99.90;;;;;;4948974;28;20492;-70
2023/05/23 12:12:35;;;;;;;3.53;3.23;;;13.60;99.90;;;;;;4948751;29;20480;-70
2023/05/23 12:15:03;;;;;;;5.23;4.30;;;13.80;99.90;;;;;;4950691;28;20491;-71
2023/05/23 12:17:31;;;;;;;3.33;3.07;;;13.90;99.90;;;;;;4947702;28;20498;-71
2023/05/23 12:19:58;;;;;;;4.43;4.03;;;14.10;99.90;;;;;;4948148;28;20492;-70
2023/05/23 12:22:25;;;;;;;3.10;3.00;;;14.30;99.90;;;;;;4958628;28;20469;-71
2023/05/23 12:24:55;;;;;;;5.60;4.50;;;14.40;99.90;;;;;;4951552;28;20490;-71
2023/05/23 12:27:28;;;;;;;4.37;4.07;;;14.70;99.90;;;;;;4951320;28;20551;-71
2023/05/23 12:30:05;;;;;;;4.10;3.83;;;14.80;99.90;;;;;;4945852;28;20489;-71
2023/05/23 12:32:31;;;;;;;5.87;2.23;;;15.00;99.90;;;;;;4946266;28;20562;-70
2023/05/23 12:34:58;;;;;;;2.90;2.57;;;15.00;99.90;;;;;;4951255;28;20476;-71
2023/05/23 12:37:25;;;;;;;2.97;2.80;;;15.00;99.90;;;;;;4951457;29;20477;-72
2023/05/23 12:39:53;;;;;;;3.23;3.00;;;15.10;99.90;;;;;;4950767;28;20520;-70
2023/05/23 12:42:20;;;;;;;2.40;2.30;;;15.20;99.90;;;;;;4954030;28;20464;-71
2023/05/23 12:44:51;;;;;;;3.13;2.93;;;15.30;99.90;;;;;;4948253;28;20472;-70
2023/05/23 12:47:18;;;;;;;3.27;3.00;;;15.40;99.90;;;;;;4949131;28;20472;-69
2023/05/23 12:49:45;;;;;;;3.00;2.83;;;15.50;99.90;;;;;;4953867;28;20491;-70
2023/05/23 12:52:12;;;;;;;4.50;4.27;;;15.70;99.90;;;;;;4953162;28;20869;-71
2023/05/23 12:54:39;;;;;;;1.87;1.87;;;15.80;99.90;;;;;;4948844;28;20527;-71
2023/05/23 12:57:07;;;;;;;4.37;2.83;;;15.70;99.90;;;;;;4951421;28;20562;-71
2023/05/23 12:59:33;;;;;;;4.10;1.90;;;15.90;99.90;;;;;;4945048;28;21115;-71
2023/05/23 13:02:01;;;;;;;4.20;2.83;;;15.70;99.90;;;;;;4951853;28;22136;-71
2023/05/23 13:04:28;;;;;;;4.63;2.73;;;15.50;99.90;;;;;;4952004;28;20469;-71
2023/05/23 13:06:54;;;;;;;2.43;2.33;;;15.60;99.90;;;;;;4948729;28;20504;-71
2023/05/23 13:09:21;;;;;;;2.67;2.67;;;15.70;99.90;;;;;;4950316;28;21276;-71
2023/05/23 13:11:48;;;;;;;6.13;2.93;;;15.70;99.90;;;;;;4957344;28;20470;-71
2023/05/23 13:14:16;;;;;;;2.10;2.10;;;15.80;99.90;;;;;;4943166;28;20488;-71
2023/05/23 13:16:44;;;;;;;3.90;2.33;;;15.70;99.90;;;;;;4951939;28;20492;-71
2023/05/23 13:19:11;;;;;;;7.10;2.40;;;15.60;99.90;;;;;;4952516;28;20555;-71
2023/05/23 13:21:37;;;;;;;3.30;3.00;;;15.50;99.90;;;;;;4950074;28;20523;-71
2023/05/23 13:24:05;;;;;;;2.93;1.70;;;15.60;99.90;;;;;;4957864;28;20483;-71
2023/05/23 13:26:31;;;;;;;5.90;2.70;;;15.60;99.90;;;;;;4953035;28;20472;-71
2023/05/23 13:28:58;;;;;;;3.73;2.50;;;15.70;99.90;;;;;;4955691;28;20539;-71
2023/05/23 13:31:27;;;;;;;2.37;2.27;;;15.90;99.90;;;;;;4950939;28;20468;-71
2023/05/23 13:33:53;;;;;;;4.03;2.30;;;15.90;99.90;;;;;;4948493;28;21031;-70
2023/05/23 13:36:20;;;;;;;2.60;2.50;;;16.00;99.90;;;;;;4956961;28;20628;-70
2023/05/23 13:38:47;;;;;;;2.60;1.60;;;16.10;99.90;;;;;;4959520;28;20587;-70
2023/05/23 13:41:14;;;;;;;2.17;2.07;;;16.00;99.90;;;;;;4943394;29;20572;-71
2023/05/23 13:43:40;;;;;;;2.90;2.70;;;16.00;99.90;;;;;;4951493;28;20992;-70
2023/05/23 13:46:07;;;;;;;2.07;1.97;;;15.70;99.90;;;;;;4949707;28;20472;-70
2023/05/23 13:48:35;;;;;;;9.27;4.10;;;15.60;99.90;;;;;;4953240;28;20476;-71
2023/05/23 13:51:02;;;;;;;1.67;1.67;;;15.60;99.90;;;;;;4958524;28;20521;-71
2023/05/23 13:53:28;;;;;;;4.43;2.30;;;15.50;99.90;;;;;;4954569;28;20484;-71
2023/05/23 13:55:56;;;;;;;2.23;2.23;;;15.60;99.90;;;;;;4950606;28;20488;-72
2023/05/23 13:58:22;;;;;;;2.43;2.33;;;15.80;99.90;;;;;;4948961;29;20476;-71
2023/05/23 14:00:49;;;;;;;3.87;1.80;;;15.90;99.90;;;;;;4955084;28;21020;-71
2023/05/23 14:03:18;;;;;;;1.87;1.77;;;15.90;99.90;;;;;;4947424;28;20471;-72
2023/05/23 14:05:46;;;;;;;2.10;2.00;;;15.80;99.90;;;;;;4953880;28;20475;-71
2023/05/23 14:08:13;;;;;;;6.33;2.80;;;15.80;99.90;;;;;;4954100;28;20476;-71
2023/05/23 14:10:40;;;;;;;2.73;2.53;;;15.70;99.90;;;;;;4953659;28;20519;-71
2023/05/23 14:13:07;;;;;;;3.40;2.17;;;15.70;99.90;;;;;;4952725;28;20469;-72
2023/05/23 14:15:33;;;;;;;3.53;2.10;;;15.70;99.90;;;;;;4948575;28;20570;-71
2023/05/23 14:18:00;;;;;;;5.73;2.03;;;15.70;99.90;;;;;;4949929;28;20787;-71
2023/05/23 14:20:28;;;;;;;2.43;2.33;;;15.70;99.90;;;;;;4949971;28;20516;-71
2023/05/23 14:22:56;;;;;;;2.27;1.77;;;15.70;99.90;;;;;;4957216;28;20504;-71
2023/05/23 14:25:23;;;;;;;2.37;1.77;;;15.60;99.90;;;;;;4952130;29;20465;-70
2023/05/23 14:27:50;;;;;;;2.13;2.13;;;15.60;99.90;;;;;;4952830;28;20480;-71
2023/05/23 14:30:16;;;;;;;2.63;2.10;;;15.60;99.90;;;;;;4955361;28;20483;-71
2023/05/23 14:32:43;;;;;;;1.90;1.80;;;15.70;99.90;;;;;;4949396;28;20845;-71
2023/05/23 14:35:11;;;;;;;3.93;2.50;;;15.80;99.90;;;;;;4956257;28;20850;-71
2023/05/23 14:37:38;;;;;;;1.30;1.30;;;15.90;99.90;;;;;;4950424;28;20492;-70
2023/05/23 14:40:08;;;;;;;6.80;2.03;;;15.70;99.90;;;;;;4955174;28;20610;-71
2023/05/23 14:42:35;;;;;;;1.90;1.80;;;15.60;99.90;;;;;;4955188;28;20857;-70
2023/05/23 14:45:02;;;;;;;2.00;1.90;;;15.70;99.90;;;;;;4954836;28;20473;-70
2023/05/23 14:47:29;;;;;;;3.50;1.60;;;15.60;99.90;;;;;;4954849;28;20480;-70
2023/05/23 14:49:56;;;;;;;2.67;2.50;;;15.50;99.90;;;;;;4948365;28;20597;-70
2023/05/23 14:52:22;;;;;;;1.90;1.83;;;15.40;99.90;;;;;;4954516;28;20479;-70
2023/05/23 14:54:49;;;;;;;2.00;1.70;;;15.50;99.90;;;;;;4950062;28;20476;-70
2023/05/23 14:57:17;;;;;;;1.97;1.90;;;15.40;99.90;;;;;;4953111;29;20480;-72
2023/05/23 14:59:45;;;;;;;9.17;1.73;;;15.50;99.90;;;;;;4951459;28;20497;-71
2023/05/23 15:02:12;;;;;;;1.90;1.80;;;15.50;99.90;;;;;;4950391;28;20472;-70
2023/05/23 15:04:38;;;;;;;0.83;0.70;;;15.60;99.90;;;;;;4947439;28;20468;-71
2023/05/23 15:07:06;;;;;;;3.90;2.53;;;15.70;99.90;;;;;;4949070;28;20476;-71
2023/05/23 15:09:32;;;;;;;1.20;1.20;;;15.70;99.90;;;;;;4951113;28;20484;-71
2023/05/23 15:11:59;;;;;;;1.80;1.80;;;15.60;99.90;;;;;;4942978;28;20477;-70
2023/05/23 15:14:28;;;;;;;2.27;2.17;;;15.60;99.90;;;;;;4950962;28;20547;-70
2023/05/23 15:16:55;;;;;;;1.50;1.50;;;15.40;99.90;;;;;;4948513;28;20583;-70
2023/05/23 15:19:22;;;;;;;0.97;0.87;;;15.40;99.90;;;;;;4951413;28;20833;-70
2023/05/23 15:21:49;;;;;;;1.07;1.07;;;15.40;99.90;;;;;;4950586;28;20494;-70
2023/05/23 15:24:15;;;;;;;4.83;2.30;;;15.30;99.90;;;;;;4952633;28;20483;-71
2023/05/23 15:26:42;;;;;;;1.20;1.20;;;15.30;99.90;;;;;;4949322;28;20464;-70
2023/05/23 15:29:09;;;;;;;2.00;1.30;;;15.20;99.90;;;;;;4950715;28;20477;-71
2023/05/23 15:31:37;;;;;;;3.13;2.70;;;15.10;99.90;;;;;;4948253;28;20599;-70
2023/05/23 15:34:03;;;;;;;1.63;1.43;;;15.00;99.90;;;;;;4950142;28;20481;-69
2023/05/23 15:36:31;;;;;;;4.93;1.27;;;14.90;99.90;;;;;;4953348;28;20484;-69
2023/05/23 15:38:57;;;;;;;3.30;1.07;;;14.90;99.90;;;;;;4948456;28;20504;-69
2023/05/23 15:41:25;;;;;;;1.40;1.40;;;14.70;99.90;;;;;;4948654;28;20478;-70
2023/05/23 15:43:51;;;;;;;5.70;0.90;;;14.60;99.90;;;;;;4949644;28;20479;-70
2023/05/23 15:46:18;;;;;;;4.73;2.00;;;14.60;99.90;;;;;;4947461;28;20563;-69
2023/05/23 15:48:46;;;;;;;4.00;1.40;;;14.70;99.90;;;;;;4946294;28;20476;-70
2023/05/23 15:51:13;;;;;;;2.63;2.27;;;14.80;99.90;;;;;;4947830;28;21207;-69
2023/05/23 15:53:41;;;;;;;0.90;0.80;;;14.90;99.90;;;;;;4950411;28;20473;-70
2023/05/23 15:56:07;;;;;;;2.57;0.97;;;14.80;99.90;;;;;;4952021;28;20492;-69
2023/05/23 15:58:34;;;;;;;7.03;2.73;;;14.80;99.90;;;;;;4948753;28;20477;-69
2023/05/23 16:01:01;;;;;;;4.17;1.60;;;14.70;99.90;;;;;;4941285;28;20496;-70
2023/05/23 16:03:28;;;;;;;1.13;1.13;;;14.70;99.90;;;;;;4941601;28;20469;-70
2023/05/23 16:05:56;;;;;;;6.53;1.63;;;14.70;99.90;;;;;;4949360;28;20476;-70
2023/05/23 16:08:22;;;;;;;4.10;1.50;;;14.90;99.90;;;;;;4947594;28;20527;-70
2023/05/23 16:10:49;;;;;;;1.00;1.00;;;14.90;99.90;;;;;;4948852;28;20512;-71
2023/05/23 16:13:16;;;;;;;0.93;0.87;;;14.90;99.90;;;;;;4951375;28;20469;-70
2023/05/23 16:15:42;;;;;;;6.43;0.93;;;14.80;99.90;;;;;;4947337;28;20483;-69
2023/05/23 16:18:10;;;;;;;1.47;1.20;;;14.60;99.90;;;;;;4950871;28;20500;-69
2023/05/23 16:20:36;;;;;;;2.10;1.17;;;14.40;99.90;;;;;;4949363;29;20493;-70
2023/05/23 16:23:05;;;;;;;2.70;1.00;;;14.20;99.90;;;;;;4946200;28;20479;-71
2023/05/23 16:25:31;;;;;;;0.77;0.77;;;14.20;99.90;;;;;;4948670;28;20468;-71
2023/05/23 16:27:59;;;;;;;1.30;1.20;;;14.20;99.90;;;;;;4951105;28;20460;-70
2023/05/23 16:30:26;;;;;;;1.30;0.83;;;14.20;99.90;;;;;;4947371;28;20559;-70
2023/05/23 16:32:53;;;;;;;1.80;1.10;;;14.30;99.90;;;;;;4947602;28;20469;-70
2023/05/23 16:35:20;;;;;;;3.33;1.03;;;14.30;99.90;;;;;;4950203;28;20469;-70
2023/05/23 16:37:47;;;;;;;3.33;0.80;;;14.30;99.90;;;;;;4951670;28;20481;-71
2023/05/23 16:40:15;;;;;;;0.53;0.53;;;14.30;99.90;;;;;;4950158;28;20494;-70
2023/05/23 16:42:42;;;;;;;2.67;1.60;;;14.10;99.90;;;;;;4949317;28;20465;-70
2023/05/23 16:45:09;;;;;;;5.73;1.47;;;14.00;99.90;;;;;;4950208;28;20468;-70
2023/05/23 16:47:36;;;;;;;1.40;1.40;;;14.00;99.90;;;;;;4950323;28;20461;-71